Time;durP1;ratioP1;P1;durP2;ratioP2;P2;SDS_P1;SDS_P2;PMS_P1;PMS_P2;Temp;Humidity;BMP_temperature;BMP_pressure;BME280_temperature;BME280_humidity;BME280_pressure;Samples;Min_cycle;Max_cycle;Signal;HPM_P1;HPM_P2
2022/09/10 00:01:12;;;;;;;3.55;1.50;;;;;;;20.89;56.59;93269.47;4846638;29;20038;-87
2022/09/10 00:03:37;;;;;;;3.92;1.67;;;;;;;20.87;56.56;93267.25;4847534;29;20080;-90
2022/09/10 00:06:03;;;;;;;1.90;1.40;;;;;;;20.86;56.59;93276.75;4870577;29;20041;-88
2022/09/10 00:08:29;;;;;;;2.58;1.63;;;;;;;20.87;56.23;93274.75;4843723;29;20093;-86
2022/09/10 00:10:56;;;;;;;2.70;1.70;;;;;;;20.88;56.16;93289.97;4844809;29;20053;-87
2022/09/10 00:13:21;;;;;;;3.58;1.33;;;;;;;20.88;56.29;93287.22;4848446;29;20627;-87
2022/09/10 00:15:50;;;;;;;3.80;1.17;;;;;;;20.88;56.50;93284.47;4851637;29;20496;-86
2022/09/10 00:18:16;;;;;;;1.50;1.40;;;;;;;20.89;56.25;93294.19;4851393;29;20515;-88
2022/09/10 00:20:46;;;;;;;2.15;1.35;;;;;;;20.88;56.42;93293.47;4811984;29;20037;-87
2022/09/10 00:23:14;;;;;;;1.45;1.13;;;;;;;20.88;56.35;93287.97;4854903;29;20426;-86
2022/09/10 00:25:41;;;;;;;2.05;1.50;;;;;;;20.86;56.44;93290.50;4855598;29;20038;-86
2022/09/10 00:28:07;;;;;;;2.28;1.38;;;;;;;20.87;56.32;93278.25;4841175;29;20037;-87
2022/09/10 00:30:32;;;;;;;2.45;1.48;;;;;;;20.88;56.23;93282.47;4811512;29;20034;-89
2022/09/10 00:32:59;;;;;;;2.17;1.40;;;;;;;20.87;56.26;93283.75;4838855;29;20041;-87
2022/09/10 00:35:24;;;;;;;2.45;1.65;;;;;;;20.86;56.38;93278.78;4824246;29;20093;-88
2022/09/10 00:37:50;;;;;;;2.08;1.52;;;;;;;20.87;56.31;93283.75;4839804;29;20049;-86
2022/09/10 00:40:15;;;;;;;3.00;1.48;;;;;;;20.86;56.44;93289.75;4826397;29;20046;-85
2022/09/10 00:42:42;;;;;;;1.98;1.35;;;;;;;20.86;56.36;93295.25;4852674;29;20577;-85
2022/09/10 00:45:16;;;;;;;1.63;1.48;;;;;;;20.86;56.48;93287.75;4824246;29;20053;-87
2022/09/10 00:47:45;;;;;;;2.70;1.50;;;;;;;20.87;55.92;93283.00;4840122;29;20588;-86
2022/09/10 00:50:16;;;;;;;2.10;1.40;;;;;;;20.87;56.32;93288.50;4824740;29;20046;-87
2022/09/10 00:52:41;;;;;;;2.08;1.52;;;;;;;20.87;56.45;93291.97;4855416;29;20045;-87
2022/09/10 00:55:07;;;;;;;2.45;1.40;;;;;;;20.86;56.38;93292.50;4854189;29;20049;-86
2022/09/10 00:57:33;;;;;;;1.77;1.58;;;;;;;20.85;56.38;93283.53;4854967;29;20042;-92
2022/09/10 01:00:01;;;;;;;1.88;1.45;;;;;;;20.85;56.33;93286.28;4824095;29;20078;-94
2022/09/10 01:02:26;;;;;;;2.80;1.42;;;;;;;20.87;56.43;93283.00;4854065;29;20042;-88
2022/09/10 01:04:53;;;;;;;1.52;1.30;;;;;;;20.87;56.26;93288.50;4821026;29;20078;-90
2022/09/10 01:07:20;;;;;;;4.13;1.77;;;;;;;20.86;56.37;93287.00;4820919;29;20049;-86
2022/09/10 01:09:45;;;;;;;3.28;1.50;;;;;;;20.85;56.37;93291.03;4806244;29;20068;-90
2022/09/10 01:12:32;;;;;;;3.10;1.55;;;;;;;20.86;56.37;93285.00;4834074;29;20038;-86
2022/09/10 01:15:23;;;;;;;3.15;1.30;;;;;;;20.88;56.28;93295.47;4846660;29;20046;-86
2022/09/10 01:18:27;;;;;;;2.75;1.30;;;;;;;20.87;56.36;93297.47;4874840;29;20049;-87
2022/09/10 01:20:55;;;;;;;1.88;1.52;;;;;;;20.85;56.38;93285.53;4837687;29;20050;-87
2022/09/10 01:23:32;;;;;;;2.10;1.50;;;;;;;20.86;56.38;93285.00;4850815;29;20045;-86
2022/09/10 01:26:18;;;;;;;1.95;1.65;;;;;;;20.85;56.31;93275.28;4884489;29;20046;-86
2022/09/10 01:28:52;;;;;;;1.65;1.33;;;;;;;20.83;56.50;93277.09;4853703;29;20052;-87
2022/09/10 01:31:37;;;;;;;1.85;1.30;;;;;;;20.84;56.39;93267.56;4845906;29;20049;-87
2022/09/10 01:34:07;;;;;;;1.70;1.40;;;;;;;20.85;56.29;93278.03;4867123;29;20046;-87
2022/09/10 01:36:35;;;;;;;1.70;1.40;;;;;;;20.84;56.36;93279.28;4817209;29;20049;-89
2022/09/10 01:39:00;;;;;;;3.50;1.88;;;;;;;20.84;56.33;93276.56;4837428;29;20471;-86
2022/09/10 01:41:26;;;;;;;2.08;1.40;;;;;;;20.85;56.24;93271.78;4853697;29;20029;-88
2022/09/10 01:43:52;;;;;;;2.13;1.58;;;;;;;20.83;56.32;93277.09;4868882;29;20051;-89
2022/09/10 01:46:27;;;;;;;1.95;1.40;;;;;;;20.82;56.52;93276.34;4837805;29;20054;-88
2022/09/10 01:49:07;;;;;;;3.90;2.10;;;;;;;20.83;56.38;93275.06;4855509;29;20053;-90
2022/09/10 01:51:48;;;;;;;2.97;1.42;;;;;;;20.82;56.59;93270.84;4854768;29;20045;-90
2022/09/10 01:54:44;;;;;;;1.83;1.40;;;;;;;20.86;56.20;93271.25;4868160;29;20046;-87
2022/09/10 01:57:49;;;;;;;1.85;1.50;;;;;;;20.83;56.31;93269.56;4854880;29;20038;-88
2022/09/10 02:00:15;;;;;;;3.42;1.20;;;;;;;20.83;56.28;93269.56;4884578;29;20052;-89
2022/09/10 02:02:45;;;;;;;1.90;1.40;;;;;;;20.84;56.38;93268.31;4853391;29;20045;-90
2022/09/10 02:05:11;;;;;;;;;;;;;;;20.85;56.33;93267.03;4853075;29;20595;-86
2022/09/10 02:07:36;;;;;;;2.53;1.27;;;;;;;20.82;56.31;93267.34;4883151;29;19997;-93
2022/09/10 02:10:03;;;;;;;2.53;1.50;;;;;;;20.82;56.20;93259.13;4820328;29;20615;-87
2022/09/10 02:12:28;;;;;;;3.13;1.75;;;;;;;20.81;56.41;93263.13;4820654;29;20462;-91
2022/09/10 02:14:55;;;;;;;2.28;1.40;;;;;;;20.84;56.24;93270.31;4868919;29;20042;-91
2022/09/10 02:17:22;;;;;;;1.70;1.33;;;;;;;20.82;56.29;93265.34;4839718;29;20051;-91
2022/09/10 02:19:50;;;;;;;2.00;1.15;;;;;;;20.81;56.35;93263.88;4805416;29;20045;-86
2022/09/10 02:22:15;;;;;;;2.83;1.77;;;;;;;20.81;56.38;93257.63;4820173;29;20034;-88
2022/09/10 02:24:43;;;;;;;2.03;1.48;;;;;;;20.81;56.42;93260.38;4838171;29;20037;-88
2022/09/10 02:27:11;;;;;;;2.30;1.50;;;;;;;20.82;56.22;93261.88;4823200;29;20132;-87
2022/09/10 02:29:38;;;;;;;1.65;1.55;;;;;;;20.83;56.37;93264.09;4868972;29;20042;-89
2022/09/10 02:32:05;;;;;;;2.00;1.30;;;;;;;20.82;56.39;93261.88;4848073;29;20066;-89
2022/09/10 02:34:31;;;;;;;2.15;1.38;;;;;;;20.82;56.44;93248.88;4838556;29;20129;-92
2022/09/10 02:36:56;;;;;;;2.05;1.40;;;;;;;20.82;56.23;93256.38;4869146;29;20173;-90
2022/09/10 02:39:22;;;;;;;1.65;1.40;;;;;;;20.80;56.33;93251.41;4837506;29;20606;-89
2022/09/10 02:41:47;;;;;;;1.88;1.25;;;;;;;20.82;55.99;93257.09;4869609;29;20501;-87
2022/09/10 02:44:13;;;;;;;1.75;1.40;;;;;;;20.83;56.01;93250.34;4837329;29;20304;-92
2022/09/10 02:46:38;;;;;;;2.65;1.30;;;;;;;20.83;56.19;93252.34;4837751;29;20052;-89
2022/09/10 02:49:05;;;;;;;3.30;1.20;;;;;;;20.82;56.16;93256.38;4838189;29;20094;-87
2022/09/10 02:51:30;;;;;;;2.08;1.30;;;;;;;20.80;56.21;93250.66;4868129;29;20042;-88
2022/09/10 02:53:55;;;;;;;1.70;1.35;;;;;;;20.80;56.21;93251.41;4852804;29;20072;-91
2022/09/10 02:56:22;;;;;;;2.72;1.60;;;;;;;20.81;56.25;93263.13;4870889;29;20041;-86
2022/09/10 02:58:48;;;;;;;1.40;1.10;;;;;;;20.80;55.95;93254.16;4857111;29;20435;-88
2022/09/10 03:01:15;;;;;;;1.88;1.20;;;;;;;20.81;56.23;93257.63;4840477;29;20045;-87
2022/09/10 03:03:41;;;;;;;2.22;1.30;;;;;;;20.80;56.03;93256.16;4856395;29;20042;-86
2022/09/10 03:06:06;;;;;;;2.13;1.13;;;;;;;20.79;55.97;93257.44;4870883;29;20048;-87
2022/09/10 03:08:32;;;;;;;2.30;1.30;;;;;;;20.78;56.29;93245.72;4835105;29;20107;-86
2022/09/10 03:11:00;;;;;;;1.70;0.98;;;;;;;20.80;56.14;93247.91;4827398;29;20132;-87
2022/09/10 03:13:26;;;;;;;1.88;1.33;;;;;;;20.80;56.20;93240.41;4871252;29;20045;-91
2022/09/10 03:15:53;;;;;;;2.88;1.27;;;;;;;20.77;56.21;93244.25;4852040;29;20042;-87
2022/09/10 03:18:21;;;;;;;2.33;1.25;;;;;;;20.79;56.22;93247.19;4847954;29;20061;-86
2022/09/10 03:20:47;;;;;;;1.70;1.30;;;;;;;20.79;56.13;93243.69;4856320;29;20090;-90
2022/09/10 03:23:12;;;;;;;1.50;1.25;;;;;;;20.80;56.23;93237.66;4840560;29;20037;-87
2022/09/10 03:25:37;;;;;;;1.35;1.10;;;;;;;20.79;56.02;93233.44;4841020;29;20029;-92
2022/09/10 03:28:03;;;;;;;1.35;1.00;;;;;;;20.80;56.10;93232.16;4839114;29;20034;-91
2022/09/10 03:30:29;;;;;;;2.53;1.00;;;;;;;20.79;56.42;93227.94;4871699;29;20037;-90
2022/09/10 03:32:56;;;;;;;1.95;1.35;;;;;;;20.80;55.97;93226.69;4862552;29;20665;-87
2022/09/10 03:35:22;;;;;;;1.10;0.82;;;;;;;20.79;56.05;93233.44;4855310;29;20037;-92
2022/09/10 03:37:47;;;;;;;1.70;1.13;;;;;;;20.77;56.23;93233.25;4840609;29;20097;-87
2022/09/10 03:40:14;;;;;;;1.80;1.10;;;;;;;20.77;56.04;93238.75;4835156;29;20526;-87
2022/09/10 03:42:40;;;;;;;2.00;1.30;;;;;;;20.77;56.16;93236.00;4807808;29;20038;-87
2022/09/10 03:45:06;;;;;;;1.48;0.93;;;;;;;20.77;56.22;93233.25;4825613;29;20052;-90
2022/09/10 03:47:31;;;;;;;1.90;1.35;;;;;;;20.77;56.19;93243.50;4855154;29;20454;-91
2022/09/10 03:49:58;;;;;;;1.88;1.00;;;;;;;20.76;55.98;93245.50;4840349;29;20061;-87
2022/09/10 03:52:25;;;;;;;2.53;0.90;;;;;;;20.77;56.18;93254.50;4849920;29;20042;-87
2022/09/10 03:54:50;;;;;;;0.95;0.82;;;;;;;20.79;55.99;93251.94;4835499;29;20570;-89
2022/09/10 03:57:16;;;;;;;1.85;0.90;;;;;;;20.76;55.92;93256.50;4870342;29;20383;-89
2022/09/10 03:59:41;;;;;;;1.20;0.93;;;;;;;20.76;55.80;93253.75;4840298;29;20045;-89
2022/09/10 04:02:08;;;;;;;1.88;1.20;;;;;;;20.77;55.98;93251.75;4824627;29;20045;-88
2022/09/10 04:04:35;;;;;;;1.13;1.00;;;;;;;20.77;56.16;93255.22;4835966;29;20080;-86
2022/09/10 04:07:03;;;;;;;1.10;0.90;;;;;;;20.76;56.01;93251.00;4839190;29;20053;-87
2022/09/10 04:09:31;;;;;;;1.40;0.80;;;;;;;20.76;56.19;93248.25;4813098;29;20557;-89
2022/09/10 04:11:57;;;;;;;1.50;1.00;;;;;;;20.76;56.16;93253.00;4848947;29;20116;-86
2022/09/10 04:14:23;;;;;;;2.40;1.30;;;;;;;20.75;56.24;93257.03;4870353;29;20048;-89
2022/09/10 04:16:48;;;;;;;1.50;0.98;;;;;;;20.77;55.84;93251.75;4849943;29;20053;-86
2022/09/10 04:19:14;;;;;;;1.30;1.08;;;;;;;20.77;56.02;93252.50;4821900;29;20049;-87
2022/09/10 04:21:40;;;;;;;1.65;0.93;;;;;;;20.74;56.05;93261.78;4838886;29;20044;-86
2022/09/10 04:24:08;;;;;;;1.52;1.17;;;;;;;20.76;55.97;93261.25;4813604;29;20407;-87
2022/09/10 04:26:33;;;;;;;1.45;1.00;;;;;;;20.76;55.87;93262.00;4856710;29;20499;-88
2022/09/10 04:28:59;;;;;;;1.23;0.90;;;;;;;20.74;55.81;93261.78;4817429;29;20037;-86
2022/09/10 04:31:24;;;;;;;1.77;1.08;;;;;;;20.76;55.99;93266.75;4837671;29;20049;-90
2022/09/10 04:33:50;;;;;;;1.75;1.00;;;;;;;20.76;55.69;93259.25;4828401;29;20105;-87
2022/09/10 04:36:16;;;;;;;1.45;1.08;;;;;;;20.74;55.87;93270.03;4807401;29;20042;-86
2022/09/10 04:38:42;;;;;;;1.50;0.82;;;;;;;20.74;55.97;93269.28;4823547;29;20052;-86
2022/09/10 04:41:08;;;;;;;1.23;0.70;;;;;;;20.74;55.93;93259.03;4831722;29;20062;-89
2022/09/10 04:43:33;;;;;;;1.50;1.00;;;;;;;20.77;55.87;93268.22;4808174;29;20081;-89
2022/09/10 04:45:59;;;;;;;1.30;0.90;;;;;;;20.75;55.94;93262.53;4807308;29;20058;-87
2022/09/10 04:48:24;;;;;;;1.80;1.05;;;;;;;20.77;55.58;93260.72;4815354;29;20078;-91
2022/09/10 04:50:50;;;;;;;1.52;1.05;;;;;;;20.73;56.07;93262.31;4824532;29;20041;-90
2022/09/10 04:53:16;;;;;;;1.95;0.88;;;;;;;20.74;55.82;93255.56;4838600;29;20044;-87
2022/09/10 04:55:42;;;;;;;1.63;1.00;;;;;;;20.74;55.80;93255.56;4870172;29;20041;-86
2022/09/10 04:58:08;;;;;;;0.80;0.80;;;;;;;20.75;55.93;93260.50;4853941;29;20177;-89
2022/09/10 05:00:33;;;;;;;1.23;0.93;;;;;;;20.75;56.13;93254.28;4825658;29;20125;-87
2022/09/10 05:02:58;;;;;;;1.75;1.10;;;;;;;20.74;55.85;93259.03;4837787;29;20042;-88
2022/09/10 05:05:24;;;;;;;1.23;0.90;;;;;;;20.74;55.86;93261.03;4838935;29;20048;-87
2022/09/10 05:07:49;;;;;;;1.90;1.17;;;;;;;20.74;55.96;93255.56;4854108;29;20037;-88
2022/09/10 05:10:15;;;;;;;1.40;0.90;;;;;;;20.76;55.72;93266.75;4808358;29;20072;-89
2022/09/10 05:12:40;;;;;;;2.25;1.00;;;;;;;20.77;55.74;93265.47;4823472;29;20042;-91
2022/09/10 05:15:06;;;;;;;2.75;1.00;;;;;;;20.76;55.90;93269.50;4884657;29;20049;-90
2022/09/10 05:17:32;;;;;;;1.13;1.02;;;;;;;20.77;55.85;93281.97;4865800;29;20046;-89
2022/09/10 05:19:58;;;;;;;2.08;1.33;;;;;;;20.75;55.94;93282.50;4853936;29;20505;-87
2022/09/10 05:22:23;;;;;;;1.98;1.40;;;;;;;20.75;55.69;93285.25;4853913;29;20074;-86
2022/09/10 05:24:49;;;;;;;1.08;0.88;;;;;;;20.75;55.91;93295.50;4854493;29;20049;-92
2022/09/10 05:27:15;;;;;;;2.03;1.08;;;;;;;20.75;55.76;93293.47;4853314;29;20450;-88
2022/09/10 05:29:41;;;;;;;1.98;1.10;;;;;;;20.75;55.71;93300.97;4823766;29;20037;-91
2022/09/10 05:32:08;;;;;;;1.20;0.90;;;;;;;20.78;55.80;93286.94;4846819;29;20038;-88
2022/09/10 05:34:33;;;;;;;1.58;1.05;;;;;;;20.78;55.91;93286.94;4846351;29;20076;-88
2022/09/10 05:36:59;;;;;;;1.38;0.98;;;;;;;20.79;56.11;93285.63;4854380;29;20049;-87
2022/09/10 05:39:24;;;;;;;2.17;1.10;;;;;;;20.77;55.83;93279.97;4822149;29;20155;-87
2022/09/10 05:41:49;;;;;;;1.15;0.90;;;;;;;20.77;55.68;93285.44;4841892;29;20038;-88
2022/09/10 05:44:16;;;;;;;1.30;0.88;;;;;;;20.77;55.96;93288.19;4835106;29;20349;-90
2022/09/10 05:46:41;;;;;;;1.52;1.02;;;;;;;20.76;55.90;93289.47;4835394;29;20046;-86
2022/09/10 05:49:07;;;;;;;1.65;0.80;;;;;;;20.79;55.72;93291.13;4848757;29;20076;-91
2022/09/10 05:51:33;;;;;;;2.33;1.20;;;;;;;20.80;55.73;93297.38;4839426;29;20375;-90
2022/09/10 05:53:59;;;;;;;1.05;0.95;;;;;;;20.82;55.64;93292.09;4822949;29;20039;-87
2022/09/10 05:56:24;;;;;;;3.33;1.25;;;;;;;20.83;55.80;93291.56;4853289;29;20493;-86
2022/09/10 05:58:50;;;;;;;1.08;0.93;;;;;;;20.84;55.53;93297.78;4807320;29;20664;-86
2022/09/10 06:01:15;;;;;;;1.48;1.10;;;;;;;20.83;55.76;93288.81;4834941;29;20514;-88
2022/09/10 06:03:41;;;;;;;1.33;0.88;;;;;;;20.83;55.81;93294.31;4850679;29;20026;-87
2022/09/10 06:06:07;;;;;;;1.25;0.80;;;;;;;20.88;55.50;93293.47;4838996;29;20123;-87
2022/09/10 06:08:32;;;;;;;1.10;0.70;;;;;;;20.87;55.74;93291.97;4834596;29;20038;-88
2022/09/10 06:11:04;;;;;;;1.33;0.98;;;;;;;20.88;55.63;93287.97;4824015;29;20398;-87
2022/09/10 06:13:29;;;;;;;1.20;0.70;;;;;;;20.89;55.78;93291.44;4853054;29;20041;-86
2022/09/10 06:15:54;;;;;;;1.05;0.70;;;;;;;20.90;55.46;93298.44;4869076;29;20033;-91
2022/09/10 06:18:20;;;;;;;1.25;1.05;;;;;;;20.92;55.61;93292.41;4852285;29;20395;-87
2022/09/10 06:20:46;;;;;;;1.33;0.98;;;;;;;20.92;55.38;93295.91;4823033;29;20034;-91
2022/09/10 06:23:14;;;;;;;0.93;0.80;;;;;;;20.93;55.53;93299.38;4838466;29;20063;-88
2022/09/10 06:25:39;;;;;;;0.73;0.73;;;;;;;20.97;55.30;93294.31;4854123;29;20081;-85
2022/09/10 06:28:05;;;;;;;0.95;0.75;;;;;;;20.97;55.49;93299.81;4822962;29;20263;-90
2022/09/10 06:30:31;;;;;;;1.65;0.90;;;;;;;20.97;55.25;93297.78;4840112;29;20433;-91
2022/09/10 06:32:56;;;;;;;1.33;0.90;;;;;;;20.99;55.23;93294.53;4823797;29;20038;-87
2022/09/10 06:35:25;;;;;;;1.35;0.77;;;;;;;21.00;55.36;93293.25;4862869;29;20041;-88
2022/09/10 06:37:52;;;;;;;0.55;0.55;;;;;;;21.01;55.48;93281.69;4841723;29;20053;-87
2022/09/10 06:40:17;;;;;;;2.97;0.98;;;;;;;21.04;55.13;93291.63;4825816;29;20040;-89
2022/09/10 06:42:44;;;;;;;29.27;4.85;;;;;;;21.07;55.15;93284.34;4856516;29;20034;-88
2022/09/10 06:45:10;;;;;;;9.73;2.60;;;;;;;21.07;55.14;93287.09;4838030;29;20057;-92
2022/09/10 06:47:36;;;;;;;4.53;1.42;;;;;;;21.08;55.02;93281.06;4854148;29;20038;-86
2022/09/10 06:50:01;;;;;;;4.30;1.20;;;;;;;21.08;55.21;93289.31;4878821;29;20217;-90
2022/09/10 06:52:28;;;;;;;1.08;0.80;;;;;;;21.10;55.12;93284.03;4856287;29;20045;-86
2022/09/10 06:54:53;;;;;;;1.65;0.82;;;;;;;21.13;54.95;93290.47;4841843;29;20042;-92
2022/09/10 06:57:18;;;;;;;1.55;1.00;;;;;;;21.17;55.15;93279.91;4825483;29;20564;-86
2022/09/10 06:59:44;;;;;;;1.33;0.95;;;;;;;21.15;54.63;93282.44;4826042;29;20045;-87
2022/09/10 07:02:09;;;;;;;2.03;1.00;;;;;;;21.13;55.05;93287.72;4855998;29;20048;-86
2022/09/10 07:04:35;;;;;;;2.15;0.85;;;;;;;21.12;55.22;93286.97;4841687;29;20042;-86
2022/09/10 07:07:00;;;;;;;2.35;0.75;;;;;;;21.16;54.97;93286.66;4855980;29;20492;-91
2022/09/10 07:09:26;;;;;;;1.42;0.82;;;;;;;21.16;55.28;93292.16;4868104;29;20499;-87
2022/09/10 07:11:51;;;;;;;1.30;0.90;;;;;;;21.18;54.93;93287.63;4825731;29;20050;-87
2022/09/10 07:14:17;;;;;;;2.13;0.90;;;;;;;21.17;55.20;93282.66;4871039;29;20264;-86
2022/09/10 07:16:43;;;;;;;1.90;0.95;;;;;;;21.18;54.86;93284.88;4871326;29;20048;-87
2022/09/10 07:19:09;;;;;;;2.33;1.10;;;;;;;21.19;55.00;93288.34;4822206;29;20054;-87
2022/09/10 07:21:36;;;;;;;1.80;0.90;;;;;;;21.20;54.79;93281.63;4854346;29;20034;-92
2022/09/10 07:24:02;;;;;;;1.92;0.93;;;;;;;21.18;55.07;93286.88;4841531;29;20041;-88
2022/09/10 07:26:27;;;;;;;1.65;1.05;;;;;;;21.19;55.16;93285.59;4825226;29;20102;-86
2022/09/10 07:28:53;;;;;;;1.52;0.85;;;;;;;21.18;55.01;93298.59;4845560;29;20049;-91
2022/09/10 07:31:22;;;;;;;1.00;0.70;;;;;;;21.18;55.07;93292.38;4852608;29;20041;-88
2022/09/10 07:33:48;;;;;;;1.92;1.02;;;;;;;21.19;55.05;93296.59;4840726;29;20058;-86
2022/09/10 07:36:13;;;;;;;2.42;0.70;;;;;;;21.18;54.92;93301.34;4847714;29;20378;-87
2022/09/10 07:38:39;;;;;;;1.23;0.68;;;;;;;21.17;54.99;93293.63;4825889;29;20512;-87
2022/09/10 07:41:05;;;;;;;1.33;0.60;;;;;;;21.18;55.09;93298.59;4839221;29;20048;-90
2022/09/10 07:43:30;;;;;;;0.93;0.70;;;;;;;21.19;55.17;93296.59;4837796;29;20038;-92
2022/09/10 07:45:56;;;;;;;1.35;0.63;;;;;;;21.20;55.36;93301.59;4821899;29;20529;-88
2022/09/10 07:48:25;;;;;;;1.10;0.70;;;;;;;21.20;55.17;93293.34;4822251;29;20414;-92
2022/09/10 07:50:51;;;;;;;1.15;0.80;;;;;;;21.20;55.09;93293.34;4828186;29;20177;-88
2022/09/10 07:53:16;;;;;;;0.60;0.52;;;;;;;21.20;55.17;93311.84;4823962;29;20098;-91
2022/09/10 07:55:42;;;;;;;1.02;0.60;;;;;;;21.20;55.11;93309.09;4823302;29;20046;-86
2022/09/10 07:58:08;;;;;;;2.38;0.90;;;;;;;21.21;55.28;93310.59;4840052;29;20058;-90
2022/09/10 08:00:34;;;;;;;0.85;0.70;;;;;;;21.20;55.23;93315.34;4825461;29;20044;-90
2022/09/10 08:02:59;;;;;;;0.95;0.75;;;;;;;21.20;55.18;93311.84;4840314;29;20050;-93
2022/09/10 08:05:27;;;;;;;1.45;0.90;;;;;;;21.20;55.31;93317.34;4838003;29;20060;-92
2022/09/10 08:07:53;;;;;;;1.27;1.00;;;;;;;21.20;55.15;93323.59;4840178;29;20042;-88
2022/09/10 08:10:18;;;;;;;1.40;0.80;;;;;;;21.21;55.22;93327.06;4830001;29;20059;-90
2022/09/10 08:12:44;;;;;;;0.75;0.65;;;;;;;21.21;55.23;93318.84;4839186;29;20041;-88
2022/09/10 08:15:09;;;;;;;1.08;0.90;;;;;;;21.22;55.27;93314.78;4824493;29;20153;-86
2022/09/10 08:17:35;;;;;;;2.28;0.85;;;;;;;21.23;55.27;93319.00;4849794;29;20061;-87
2022/09/10 08:20:05;;;;;;;1.95;0.50;;;;;;;21.22;55.16;93316.81;4870480;29;20552;-91
2022/09/10 08:22:30;;;;;;;1.08;0.60;;;;;;;21.23;55.23;93329.28;4841031;29;20094;-87
2022/09/10 08:24:56;;;;;;;1.27;0.70;;;;;;;21.23;55.36;93329.28;4837146;29;20046;-89
2022/09/10 08:27:21;;;;;;;1.73;0.90;;;;;;;21.22;54.79;93327.81;4816535;29;20041;-88
2022/09/10 08:29:46;;;;;;;3.60;1.00;;;;;;;21.23;55.18;93332.75;4836868;29;20038;-86
2022/09/10 08:32:12;;;;;;;6.05;1.33;;;;;;;21.22;55.21;93331.28;4812460;29;20046;-88
2022/09/10 08:34:38;;;;;;;1.48;0.77;;;;;;;21.23;55.17;93334.78;4836762;29;20046;-87
2022/09/10 08:37:03;;;;;;;5.93;1.13;;;;;;;21.23;55.22;93332.03;4850856;29;20033;-89
2022/09/10 08:39:31;;;;;;;2.58;0.90;;;;;;;21.21;55.24;93332.56;4826834;29;20044;-86
2022/09/10 08:42:21;;;;;;;2.47;1.30;;;;;;;21.21;55.37;93335.31;4872935;29;20121;-90
2022/09/10 08:44:58;;;;;;;3.50;1.10;;;;;;;21.22;55.40;93333.31;4822425;29;20042;-90
2022/09/10 08:47:31;;;;;;;6.55;1.30;;;;;;;21.24;55.26;93341.75;4836446;29;20038;-87
2022/09/10 08:49:59;;;;;;;2.97;1.00;;;;;;;21.23;55.31;93343.00;4822313;29;20441;-86
2022/09/10 08:52:26;;;;;;;1.63;0.77;;;;;;;21.22;55.24;93344.31;4815712;29;20129;-89
2022/09/10 08:55:09;;;;;;;5.68;1.00;;;;;;;21.22;55.25;93344.31;4855416;29;20689;-92
2022/09/10 08:57:39;;;;;;;2.00;0.80;;;;;;;21.20;55.37;93336.59;4854008;29;20038;-90
2022/09/10 09:00:06;;;;;;;1.60;0.80;;;;;;;21.24;55.09;93339.75;4848195;29;20042;-86
2022/09/10 09:02:44;;;;;;;2.22;0.73;;;;;;;21.21;55.38;93343.56;4841302;29;20084;-86
2022/09/10 09:05:19;;;;;;;2.50;0.82;;;;;;;21.22;55.27;93347.78;4850781;29;20049;-89
2022/09/10 09:07:45;;;;;;;3.13;1.05;;;;;;;21.21;55.17;93338.06;4866312;29;20038;-89
2022/09/10 09:10:31;;;;;;;3.28;1.33;;;;;;;21.22;55.38;93341.56;4832529;29;20699;-90
2022/09/10 09:13:25;;;;;;;1.58;1.02;;;;;;;21.22;55.41;93338.81;4855835;29;20046;-93
2022/09/10 09:16:16;;;;;;;6.05;0.90;;;;;;;21.21;55.47;93354.56;4818272;29;20054;-86
2022/09/10 09:19:21;;;;;;;2.95;1.13;;;;;;;21.20;55.48;93350.34;4851418;29;20409;-93
2022/09/10 09:21:52;;;;;;;6.70;2.10;;;;;;;21.21;55.31;93351.81;4836676;29;20583;-88
2022/09/10 09:24:22;;;;;;;3.22;1.08;;;;;;;21.21;55.26;93349.06;4848643;29;20246;-91
2022/09/10 09:26:48;;;;;;;1.85;0.90;;;;;;;21.20;55.48;93356.56;4868419;29;20038;-91
2022/09/10 09:29:26;;;;;;;7.78;1.48;;;;;;;21.20;55.50;93353.09;4826456;29;20073;-87
2022/09/10 09:31:53;;;;;;;16.98;3.15;;;;;;;21.19;55.46;93357.81;4854582;29;20077;-90
2022/09/10 09:34:22;;;;;;;12.18;2.15;;;;;;;21.20;55.24;93350.34;4849441;29;20037;-91
2022/09/10 09:36:49;;;;;;;10.93;2.75;;;;;;;21.21;55.35;93360.06;4853964;29;20042;-92
2022/09/10 09:39:29;;;;;;;10.40;3.35;;;;;;;21.22;55.64;93349.81;4833976;29;20042;-92
2022/09/10 09:42:17;;;;;;;13.63;4.30;;;;;;;21.20;55.42;93350.34;4854839;29;20046;-88
2022/09/10 09:45:07;;;;;;;9.98;4.35;;;;;;;21.20;55.49;93342.84;4836650;29;20125;-92
2022/09/10 09:47:33;;;;;;;16.40;6.75;;;;;;;;;;4826252;29;20562;-93
2022/09/10 09:49:59;;;;;;;14.57;6.55;;;;;;;21.26;55.28;93348.19;4866888;29;20136;-89
2022/09/10 09:52:24;;;;;;;13.73;6.35;;;;;;;21.23;55.41;93340.25;4837630;29;20053;-87
2022/09/10 09:54:56;;;;;;;16.30;5.88;;;;;;;21.20;55.09;93340.09;4853684;29;20718;-88
2022/09/10 09:57:22;;;;;;;15.80;6.13;;;;;;;21.20;55.49;93337.34;4845367;29;20051;-88
2022/09/10 09:59:49;;;;;;;11.88;5.32;;;;;;;21.21;55.58;93338.06;4833615;29;20046;-90
2022/09/10 10:02:24;;;;;;;15.90;5.53;;;;;;;21.20;55.44;93342.09;4816368;29;20514;-86
2022/09/10 10:05:05;;;;;;;17.38;6.22;;;;;;;21.20;55.41;93339.34;4821140;29;20042;-89
2022/09/10 10:07:32;;;;;;;14.02;5.13;;;;;;;21.18;55.42;93339.84;4828868;29;20090;-86
2022/09/10 10:10:00;;;;;;;10.65;5.03;;;;;;;21.18;55.31;93337.09;4839586;29;20141;-89
2022/09/10 10:12:26;;;;;;;11.90;5.20;;;;;;;21.19;55.31;93343.34;4839417;29;20046;-87
2022/09/10 10:14:52;;;;;;;10.70;4.63;;;;;;;21.19;55.48;93329.59;4856914;29;20097;-87
2022/09/10 10:17:23;;;;;;;9.90;4.82;;;;;;;21.20;55.38;93334.59;4841914;29;20090;-88
2022/09/10 10:20:11;;;;;;;9.60;4.82;;;;;;;21.19;55.23;93330.31;4887539;29;20049;-90
2022/09/10 10:22:38;;;;;;;6.93;3.20;;;;;;;21.14;54.30;93333.94;4857361;29;20045;-91
2022/09/10 10:25:24;;;;;;;6.57;3.08;;;;;;;21.14;54.14;93342.16;4856104;29;20033;-87
2022/09/10 10:27:53;;;;;;;5.38;2.60;;;;;;;21.19;53.88;93335.09;4843900;29;20041;-86
2022/09/10 10:30:21;;;;;;;5.30;2.00;;;;;;;21.15;53.90;93340.91;4826418;29;20046;-91
2022/09/10 10:32:54;;;;;;;7.93;2.78;;;;;;;21.16;53.91;93331.38;4856612;29;20045;-91
2022/09/10 10:35:28;;;;;;;6.45;2.92;;;;;;;21.18;53.84;93328.84;4834493;29;20066;-91
2022/09/10 10:38:06;;;;;;;7.57;3.10;;;;;;;21.18;53.84;93314.38;4858701;29;20069;-92
2022/09/10 10:40:33;;;;;;;4.65;2.58;;;;;;;21.18;53.99;93320.59;4872161;29;20577;-88
2022/09/10 10:43:03;;;;;;;8.38;3.10;;;;;;;21.18;54.28;93314.38;4851102;29;20045;-86
2022/09/10 10:45:34;;;;;;;10.45;4.03;;;;;;;21.22;54.17;93308.56;4865079;29;20041;-87
2022/09/10 10:48:09;;;;;;;;;;;;;;;21.19;54.55;93316.59;4872444;29;20693;-86
2022/09/10 10:51:05;;;;;;;9.75;3.90;;;;;;;21.18;54.59;93312.34;4887811;29;19927;-90
2022/09/10 10:53:58;;;;;;;9.15;4.45;;;;;;;21.19;54.79;93307.59;4854732;29;20443;-86
2022/09/10 10:56:31;;;;;;;9.15;3.97;;;;;;;21.19;54.59;93311.09;4856511;29;20414;-87
2022/09/10 10:59:22;;;;;;;9.95;3.63;;;;;;;21.19;54.93;93315.84;4852807;29;20042;-86
2022/09/10 11:01:51;;;;;;;10.70;3.95;;;;;;;21.25;54.76;93315.72;4887799;29;20049;-86
2022/09/10 11:04:21;;;;;;;9.25;3.53;;;;;;;21.22;54.93;93317.53;4840682;29;20049;-90
2022/09/10 11:06:51;;;;;;;9.50;4.47;;;;;;;21.23;55.05;93318.28;4857709;29;20050;-91
2022/09/10 11:09:41;;;;;;;8.10;4.00;;;;;;;21.19;55.17;93308.34;4855457;29;20046;-87
2022/09/10 11:12:19;;;;;;;8.55;3.60;;;;;;;21.20;55.10;93322.84;4837791;29;20034;-88
2022/09/10 11:15:13;;;;;;;9.60;3.40;;;;;;;21.21;54.98;93327.06;4856035;29;20045;-88
2022/09/10 11:17:42;;;;;;;9.75;3.80;;;;;;;21.20;55.10;93326.34;4835209;29;20034;-89
2022/09/10 11:20:22;;;;;;;8.25;3.78;;;;;;;21.21;55.18;93321.56;4807783;29;20372;-86
2022/09/10 11:22:52;;;;;;;8.77;3.88;;;;;;;21.20;55.06;93320.09;4838416;29;20050;-87
2022/09/10 11:25:36;;;;;;;8.45;4.00;;;;;;;21.19;55.03;93319.34;4817138;29;20045;-88
2022/09/10 11:28:14;;;;;;;8.32;3.67;;;;;;;21.19;55.12;93322.09;4856901;29;20049;-86
2022/09/10 11:30:40;;;;;;;9.32;4.18;;;;;;;21.23;55.05;93332.03;4840353;29;20050;-86
2022/09/10 11:33:14;;;;;;;8.60;4.35;;;;;;;21.19;54.98;93310.34;4822283;29;20045;-87
2022/09/10 11:35:43;;;;;;;10.35;4.05;;;;;;;21.23;55.14;93321.75;4841582;29;20488;-91
2022/09/10 11:38:47;;;;;;;10.55;4.80;;;;;;;21.19;55.01;93319.34;4840707;29;20422;-91
2022/09/10 11:41:17;;;;;;;10.70;3.90;;;;;;;21.20;55.26;93311.84;4840960;29;20041;-89
2022/09/10 11:44:14;;;;;;;12.35;4.38;;;;;;;21.19;55.17;93302.84;4844185;29;20053;-87